Time,TemperatureF,DewpointF,PressureIn,WindDirection,WindDirectionDegrees,WindSpeedMPH,WindSpeedGustMPH,Humidity,HourlyPrecipIn,Conditions,Clouds,dailyrainin,SoftwareType,DateUTC
2013-01-06 16:33:00,28.0,22.0,-100.00,WNW,295,9.0,14.0,80,-99.99,,,-99.99,,2013-01-06 21:33:00,
2013-01-06 16:53:00,28.0,22.0,-100.00,West,280,8.0,12.0,79,-99.99,,,-99.99,,2013-01-06 21:53:00,
2013-01-06 17:02:00,28.0,22.0,-100.00,West,280,8.0,12.0,79,-99.99,,,-99.99,,2013-01-06 22:02:00,
2013-01-06 17:22:00,28.0,23.0,-100.00,WNW,285,7.0,11.0,80,-99.99,,,-99.99,,2013-01-06 22:22:00,
2013-01-06 17:33:00,28.0,23.0,-100.00,WNW,285,7.0,11.0,80,-99.99,,,-99.99,,2013-01-06 22:33:00,
2013-01-06 17:53:00,29.0,24.0,-100.00,WNW,295,11.0,14.0,80,-99.99,,,-99.99,,2013-01-06 22:53:00,
2013-01-06 18:02:00,29.0,24.0,-100.00,WNW,295,11.0,14.0,80,-99.99,,,-99.99,,2013-01-06 23:02:00,
2013-01-06 18:22:00,30.0,24.0,-100.00,WNW,290,11.0,16.0,80,-99.99,,,-99.99,,2013-01-06 23:22:00,
2013-01-06 18:33:00,30.0,24.0,-100.00,WNW,290,11.0,16.0,80,-99.99,,,-99.99,,2013-01-06 23:33:00,
2013-01-06 18:40:00,30.0,24.0,-100.00,West,275,7.0,10.0,79,-99.99,,,-99.99,,2013-01-06 23:40:00,
2013-01-06 18:53:00,30.0,24.0,-100.00,West,270,10.0,15.0,78,-99.99,,,-99.99,,2013-01-06 23:53:00,
2013-01-06 19:02:00,30.0,24.0,-100.00,West,270,10.0,15.0,78,-99.99,,,-99.99,,2013-01-07 00:02:00,
2013-01-06 19:23:00,30.0,24.0,-100.00,West,275,7.0,10.0,79,-99.99,,,-99.99,,2013-01-07 00:23:00,
2013-01-06 19:33:00,30.0,24.0,-100.00,West,275,7.0,10.0,79,-99.99,,,-99.99,,2013-01-07 00:33:00,
2013-01-06 19:53:00,30.0,24.0,-100.00,WNW,285,7.0,11.0,79,-99.99,,,-99.99,,2013-01-07 00:53:00,
2013-01-06 20:02:00,30.0,24.0,-100.00,WNW,285,7.0,11.0,79,-99.99,,,-99.99,,2013-01-07 01:02:00,
2013-01-06 20:23:00,30.0,25.0,-100.00,West,280,5.0,11.0,79,-99.99,,,-99.99,,2013-01-07 01:23:00,
2013-01-06 20:32:00,30.0,25.0,-100.00,West,280,5.0,11.0,79,-99.99,,,-99.99,,2013-01-07 01:32:00,
2013-01-06 20:53:00,30.0,25.0,-100.00,WNW,295,6.0,7.0,80,-99.99,,,-99.99,,2013-01-07 01:53:00,
2013-01-06 21:02:00,30.0,25.0,-100.00,WNW,295,6.0,7.0,80,-99.99,,,-99.99,,2013-01-07 02:02:00,
2013-01-06 21:10:00,30.0,25.0,-100.00,WNW,285,7.0,10.0,82,-99.99,,,-99.99,,2013-01-07 02:10:00,
2013-01-06 21:22:00,30.0,25.0,-100.00,West,265,7.0,11.0,81,-99.99,,,-99.99,,2013-01-07 02:22:00,
2013-01-06 21:32:00,30.0,25.0,-100.00,West,265,7.0,11.0,81,-99.99,,,-99.99,,2013-01-07 02:32:00,
2013-01-06 21:53:00,30.0,25.0,-100.00,WNW,285,7.0,10.0,82,-99.99,,,-99.99,,2013-01-07 02:53:00,
2013-01-06 22:02:00,30.0,25.0,-100.00,WNW,285,7.0,10.0,82,-99.99,,,-99.99,,2013-01-07 03:02:00,
2013-01-06 22:10:00,30.0,25.0,-100.00,WNW,285,6.0,12.0,81,-99.99,,,-99.99,,2013-01-07 03:10:00,
2013-01-06 22:22:00,30.0,25.0,-100.00,WNW,290,8.0,13.0,81,-99.99,,,-99.99,,2013-01-07 03:22:00,
2013-01-06 22:33:00,30.0,25.0,-100.00,WNW,290,8.0,13.0,81,-99.99,,,-99.99,,2013-01-07 03:33:00,
2013-01-06 22:53:00,30.0,25.0,-100.00,WNW,285,6.0,12.0,81,-99.99,,,-99.99,,2013-01-07 03:53:00,
2013-01-06 23:02:00,30.0,25.0,-100.00,WNW,285,6.0,12.0,81,-99.99,,,-99.99,,2013-01-07 04:02:00,
2013-01-06 23:52:00,29.0,24.0,-100.00,West,280,5.0,8.0,82,-99.99,,,-99.99,,2013-01-07 04:52:00,